Terminal Aerodrome Forecast
Issued by NWS Paducah, KY

Home | Current Version | Previous Version | Text Only | Print | Product List | Glossary On
Versions: 1 2 3 4 5 6 7 8 9 10 11 12 13 14 15 16 17 18
000
FTUS43 KPAH 222326
TAFEVV
TAF
KEVV 222326Z 2300/2324 VRB03KT P6SM SCT050
     FM230600 00000KT 4SM BR SCT250
      TEMPO 2308/2312 2SM BR
     FM231400 16004KT P6SM SCT025=

USA.gov is the U.S. government's official web portal to all federal, state and local government web resources and services.